Time;durP1;ratioP1;P1;durP2;ratioP2;P2;SDS_P1;SDS_P2;PMS_P1;PMS_P2;Temp;Humidity;BMP_temperature;BMP_pressure;BME280_temperature;BME280_humidity;BME280_pressure;Samples;Min_cycle;Max_cycle;Signal;HPM_P1;HPM_P2
2022/03/22 00:01:11;;;;;;;36.03;26.00;;;;;;;5.68;39.88;95952.53;5062214;28;20439;-74
2022/03/22 00:03:37;;;;;;;22.73;15.27;;;;;;;5.97;39.25;95951.00;5059859;28;20189;-73
2022/03/22 00:06:03;;;;;;;37.23;26.80;;;;;;;5.73;39.17;95946.97;5057252;28;20201;-73
2022/03/22 00:08:29;;;;;;;33.80;23.17;;;;;;;5.71;39.31;95950.63;5051940;28;20186;-74
2022/03/22 00:10:55;;;;;;;34.97;24.17;;;;;;;5.56;40.00;95947.56;5060522;28;20502;-74
2022/03/22 00:13:20;;;;;;;34.40;24.90;;;;;;;5.57;40.35;95947.44;5039996;28;20434;-74
2022/03/22 00:15:46;;;;;;;33.30;23.93;;;;;;;5.41;40.18;95949.69;5061358;28;20456;-73
2022/03/22 00:18:12;;;;;;;33.37;23.93;;;;;;;5.63;39.78;95946.94;5059909;28;20225;-73
2022/03/22 00:20:37;;;;;;;33.80;23.33;;;;;;;5.70;39.95;95949.81;5061429;28;20417;-74
2022/03/22 00:23:03;;;;;;;26.93;20.47;;;;;;;5.77;39.66;95950.94;5057156;28;20261;-74
2022/03/22 00:25:29;;;;;;;25.53;19.50;;;;;;;6.10;38.89;95936.00;5055865;28;20241;-74
2022/03/22 00:27:57;;;;;;;31.73;18.80;;;;;;;5.30;39.42;95936.81;5060051;28;20455;-73
2022/03/22 00:30:25;;;;;;;33.33;21.87;;;;;;;5.44;40.53;95936.44;5064068;28;20185;-73
2022/03/22 00:32:53;;;;;;;30.70;20.70;;;;;;;5.65;39.92;95936.38;5062327;28;20440;-74
2022/03/22 00:35:23;;;;;;;29.13;22.23;;;;;;;5.82;39.46;95938.38;5067327;28;20935;-74
2022/03/22 00:37:51;;;;;;;25.80;20.50;;;;;;;6.08;39.09;95932.72;5066001;28;20468;-73
2022/03/22 00:40:17;;;;;;;25.87;18.53;;;;;;;5.71;39.27;95932.44;5070133;28;20466;-74
2022/03/22 00:42:46;;;;;;;25.50;18.80;;;;;;;5.63;39.18;95928.75;5066441;28;20507;-73
2022/03/22 00:45:16;;;;;;;21.70;16.23;;;;;;;5.31;39.58;95935.84;5065945;28;21008;-73
2022/03/22 00:47:46;;;;;;;22.10;17.07;;;;;;;5.37;39.35;95935.31;5064050;28;20433;-74
2022/03/22 00:50:13;;;;;;;22.23;17.70;;;;;;;5.26;39.90;95931.88;5064925;28;20946;-73
2022/03/22 00:52:39;;;;;;;24.13;17.43;;;;;;;5.80;39.02;95922.06;5066106;28;20505;-74
2022/03/22 00:55:05;;;;;;;26.47;17.93;;;;;;;5.90;38.75;95924.72;5066715;28;20424;-73
2022/03/22 00:57:34;;;;;;;22.30;16.53;;;;;;;5.96;38.16;95924.22;5063787;28;20198;-74
2022/03/22 01:00:07;;;;;;;23.03;17.00;;;;;;;6.13;37.97;95924.50;5070329;28;20444;-74
2022/03/22 01:02:37;;;;;;;23.93;17.33;;;;;;;6.17;37.58;95926.72;5068735;28;20409;-74
2022/03/22 01:05:08;;;;;;;22.83;18.53;;;;;;;6.29;37.22;95918.78;5067668;28;20412;-74
2022/03/22 01:07:34;;;;;;;23.27;17.73;;;;;;;6.23;37.42;95923.56;5064273;28;20438;-73
2022/03/22 01:10:06;;;;;;;23.47;16.43;;;;;;;6.24;37.43;95917.41;5069920;28;20440;-74
2022/03/22 01:12:39;;;;;;;26.23;17.13;;;;;;;6.45;37.36;95913.88;5062534;28;20413;-74
2022/03/22 01:15:11;;;;;;;20.40;14.60;;;;;;;6.53;36.48;95915.78;5067005;28;20437;-74
2022/03/22 01:17:37;;;;;;;17.87;14.63;;;;;;;6.76;35.86;95911.91;5062622;28;20463;-74
2022/03/22 01:20:06;;;;;;;24.80;17.10;;;;;;;6.60;36.22;95914.25;5064291;28;20495;-73
2022/03/22 01:22:32;;;;;;;20.70;15.73;;;;;;;6.64;36.60;95920.84;5060083;28;20416;-73
2022/03/22 01:25:00;;;;;;;20.73;15.13;;;;;;;6.67;36.90;95912.75;5064212;28;20444;-74
2022/03/22 01:27:26;;;;;;;22.30;15.37;;;;;;;6.80;35.89;95908.06;5066961;28;20412;-74
2022/03/22 01:29:52;;;;;;;24.33;16.33;;;;;;;6.90;36.62;95899.44;5067658;28;20451;-74
2022/03/22 01:32:18;;;;;;;25.40;16.10;;;;;;;6.55;36.76;95911.28;5067102;28;20519;-74
2022/03/22 01:34:43;;;;;;;20.10;16.00;;;;;;;6.43;37.28;95906.22;5070207;28;20432;-73
2022/03/22 01:37:09;;;;;;;20.93;15.50;;;;;;;6.38;36.59;95897.97;5061752;28;20202;-74
2022/03/22 01:39:35;;;;;;;20.60;16.23;;;;;;;6.45;37.01;95903.47;5065790;28;20182;-73
2022/03/22 01:42:01;;;;;;;20.60;16.53;;;;;;;6.58;36.53;95904.00;5068329;28;20421;-74
2022/03/22 01:44:27;;;;;;;34.80;15.80;;;;;;;6.28;37.08;95899.78;5066958;28;20190;-74
2022/03/22 01:46:56;;;;;;;22.70;16.00;;;;;;;6.62;37.01;95904.53;5065397;28;20176;-74
2022/03/22 01:49:22;;;;;;;28.13;15.83;;;;;;;7.21;36.22;95890.47;5065127;28;20455;-74
2022/03/22 01:51:49;;;;;;;21.73;15.27;;;;;;;6.48;37.13;95891.97;5063299;28;20647;-73
2022/03/22 01:54:16;;;;;;;24.77;17.20;;;;;;;6.48;37.78;95894.56;5058925;28;20479;-73
2022/03/22 01:56:41;;;;;;;24.50;18.13;;;;;;;6.54;37.78;95899.22;5050916;28;20913;-74
2022/03/22 01:59:07;;;;;;;28.17;18.97;;;;;;;6.02;38.51;95891.69;5047839;28;20438;-74
2022/03/22 02:07:05;;;;;;;21.07;16.67;;;;;;;6.72;37.94;95888.94;5061703;28;20847;-74
2022/03/22 02:09:30;;;;;;;23.17;17.53;;;;;;;6.58;37.48;95897.97;5046880;28;20441;-73
2022/03/22 02:11:56;;;;;;;22.60;13.40;;;;;;;6.91;36.33;95882.88;5066813;28;20436;-73
2022/03/22 02:14:21;;;;;;;32.43;16.87;;;;;;;6.15;37.49;95894.03;5048408;28;20172;-73
2022/03/22 02:16:47;;;;;;;21.43;15.20;;;;;;;6.09;38.16;95889.34;5052735;28;20214;-74
2022/03/22 02:19:14;;;;;;;24.60;14.70;;;;;;;6.52;37.64;95882.94;5048809;28;20195;-73
2022/03/22 02:21:41;;;;;;;18.60;14.70;;;;;;;6.51;37.71;95881.31;5061660;28;20185;-75
2022/03/22 02:24:07;;;;;;;23.33;14.97;;;;;;;6.29;38.17;95885.81;5056559;28;20463;-76
2022/03/22 02:26:32;;;;;;;26.50;16.00;;;;;;;6.21;38.64;95878.69;5065382;28;20417;-74
2022/03/22 02:28:59;;;;;;;15.00;11.57;;;;;;;6.42;38.24;95882.94;5046854;28;20536;-74
2022/03/22 02:31:29;;;;;;;15.53;12.83;;;;;;;6.23;37.88;95886.34;5049382;28;20206;-74
2022/03/22 02:33:55;;;;;;;16.90;13.63;;;;;;;6.27;38.44;95882.53;5056132;28;20451;-75
2022/03/22 02:36:21;;;;;;;23.00;13.00;;;;;;;6.58;37.71;95872.81;5066488;28;20531;-74
2022/03/22 02:38:47;;;;;;;21.30;13.67;;;;;;;6.33;38.30;95874.16;5050031;28;20460;-74
2022/03/22 02:41:18;;;;;;;16.80;11.93;;;;;;;5.79;37.95;95870.28;5046350;28;20452;-74
2022/03/22 02:43:48;;;;;;;13.70;11.80;;;;;;;5.98;37.99;95875.53;5054154;28;20187;-74
2022/03/22 02:46:14;;;;;;;16.80;11.70;;;;;;;6.01;38.06;95874.44;5065116;28;20421;-73
2022/03/22 02:48:40;;;;;;;18.37;13.33;;;;;;;6.13;38.14;95880.31;5054650;28;20428;-74
2022/03/22 02:51:05;;;;;;;20.17;13.87;;;;;;;6.16;38.17;95872.25;5066025;28;20472;-73
2022/03/22 02:53:31;;;;;;;18.93;14.33;;;;;;;6.12;38.17;95873.50;5055455;28;20230;-73
2022/03/22 02:55:56;;;;;;;17.73;14.00;;;;;;;6.11;38.55;95874.44;5066050;28;20175;-73
2022/03/22 02:58:22;;;;;;;17.90;13.60;;;;;;;6.13;38.31;95888.13;5054616;28;20175;-74
2022/03/22 03:00:47;;;;;;;19.53;14.27;;;;;;;5.99;38.14;95878.94;5064728;28;20181;-73
2022/03/22 03:03:14;;;;;;;25.40;14.90;;;;;;;6.01;38.43;95890.88;5055078;28;20183;-74
2022/03/22 03:05:39;;;;;;;20.33;14.90;;;;;;;6.21;38.11;95890.88;5065635;28;20182;-73
2022/03/22 03:08:06;;;;;;;20.80;14.70;;;;;;;6.18;38.46;95886.75;5059546;28;20463;-74
2022/03/22 03:10:31;;;;;;;21.63;14.37;;;;;;;6.23;37.90;95894.16;5064773;28;20289;-74
2022/03/22 03:12:59;;;;;;;23.37;14.80;;;;;;;6.05;38.33;95887.03;5050326;28;20464;-74
2022/03/22 03:15:24;;;;;;;22.40;14.93;;;;;;;6.43;37.49;95885.41;5045485;28;20218;-73
2022/03/22 03:17:49;;;;;;;16.10;12.50;;;;;;;5.12;38.88;95882.88;5059512;28;20497;-73
2022/03/22 03:20:15;;;;;;;20.60;13.00;;;;;;;5.29;39.35;95889.25;5056821;28;20185;-73
2022/03/22 03:22:40;;;;;;;22.60;13.23;;;;;;;5.24;40.38;95881.06;5059380;28;20177;-74
2022/03/22 03:25:08;;;;;;;22.73;14.77;;;;;;;5.53;39.20;95881.16;5052217;28;20194;-74
2022/03/22 03:27:33;;;;;;;22.23;13.97;;;;;;;5.66;38.42;95884.31;5056617;28;20179;-74
2022/03/22 03:29:59;;;;;;;18.70;13.40;;;;;;;5.76;38.60;95873.16;5062402;28;20436;-74
2022/03/22 03:32:24;;;;;;;22.70;14.57;;;;;;;5.94;38.31;95881.94;5055864;28;20204;-74
2022/03/22 03:34:50;;;;;;;25.60;13.93;;;;;;;5.75;38.72;95880.13;5063789;28;20183;-73
2022/03/22 03:37:16;;;;;;;23.50;14.97;;;;;;;5.89;38.37;95875.50;5059917;28;20230;-74
2022/03/22 03:39:43;;;;;;;16.90;13.03;;;;;;;5.33;39.33;95875.09;5065281;28;20174;-73
2022/03/22 03:42:09;;;;;;;23.13;15.50;;;;;;;5.22;39.52;95873.41;5053668;28;20425;-73
2022/03/22 03:47:22;;;;;;;25.40;14.90;;;;;;;5.38;39.26;95882.47;5051129;28;20416;-75
2022/03/22 03:49:56;;;;;;;19.00;13.77;;;;;;;5.45;39.13;95881.00;5053730;28;20441;-74
2022/03/22 03:52:24;;;;;;;15.37;12.00;;;;;;;5.53;38.66;95875.94;5058370;28;20469;-74
2022/03/22 03:54:50;;;;;;;25.33;15.00;;;;;;;5.53;39.04;95875.13;5054131;28;20425;-73
2022/03/22 03:57:17;;;;;;;19.07;13.17;;;;;;;5.60;38.74;95881.44;5059929;28;20442;-74
2022/03/22 03:59:42;;;;;;;21.20;13.23;;;;;;;5.74;38.32;95869.84;5064977;28;20438;-73
2022/03/22 04:02:08;;;;;;;21.43;14.80;;;;;;;5.66;38.32;95876.53;5045698;28;20434;-73
2022/03/22 04:04:35;;;;;;;21.50;14.03;;;;;;;5.77;38.21;95877.41;5065202;28;20197;-73
2022/03/22 04:07:01;;;;;;;20.50;13.33;;;;;;;5.74;38.24;95877.66;5050829;28;20178;-74
2022/03/22 04:09:27;;;;;;;19.87;12.23;;;;;;;5.64;38.18;95883.63;5064219;28;20916;-74
2022/03/22 04:11:54;;;;;;;19.30;13.57;;;;;;;5.65;38.24;95877.50;5050983;28;20549;-74
2022/03/22 04:14:19;;;;;;;24.47;12.23;;;;;;;5.79;38.21;95885.88;5049871;28;20205;-73
2022/03/22 04:16:46;;;;;;;19.00;13.30;;;;;;;5.86;37.50;95876.56;5061741;28;20564;-74
2022/03/22 04:19:12;;;;;;;21.67;14.13;;;;;;;5.70;37.72;95881.47;5062354;28;20549;-74
2022/03/22 04:21:39;;;;;;;22.20;15.23;;;;;;;5.39;38.84;95878.94;5060183;28;20437;-74
2022/03/22 04:24:06;;;;;;;26.43;16.20;;;;;;;5.58;38.51;95878.97;5062436;28;20938;-74
2022/03/22 04:26:34;;;;;;;19.80;15.03;;;;;;;5.48;38.72;95888.50;5060707;28;20425;-74
2022/03/22 04:34:27;;;;;;;17.57;14.30;;;;;;;5.24;39.56;95881.88;5053443;28;20519;-74
2022/03/22 04:36:56;;;;;;;9.70;6.67;;;;;;;5.25;38.53;95880.09;5059685;28;20548;-73
2022/03/22 04:39:26;;;;;;;11.13;8.20;;;;;;;5.71;36.48;95877.91;5048892;28;20186;-74
2022/03/22 04:41:52;;;;;;;13.43;8.90;;;;;;;5.96;37.03;95880.06;5060479;28;20419;-73
2022/03/22 04:44:17;;;;;;;16.70;12.57;;;;;;;5.86;37.38;95882.59;5057786;28;20437;-74
2022/03/22 04:46:43;;;;;;;16.87;13.90;;;;;;;5.83;37.93;95876.84;5052654;28;20421;-74
2022/03/22 04:49:09;;;;;;;20.43;14.87;;;;;;;5.66;38.06;95875.72;5057400;28;20205;-73
2022/03/22 04:57:03;;;;;;;19.60;14.20;;;;;;;5.77;37.70;95874.78;5058710;28;20519;-73
2022/03/22 04:59:28;;;;;;;19.37;13.70;;;;;;;6.02;37.75;95876.91;5052518;28;20457;-73
2022/03/22 05:01:54;;;;;;;19.50;14.27;;;;;;;5.99;37.38;95873.75;5059934;28;20418;-74
2022/03/22 05:04:20;;;;;;;24.93;15.20;;;;;;;5.79;37.56;95880.69;5056098;28;20218;-74
2022/03/22 05:06:46;;;;;;;18.50;15.10;;;;;;;6.06;37.45;95878.25;5052803;28;20242;-74
2022/03/22 05:09:12;;;;;;;22.50;14.73;;;;;;;6.47;36.92;95879.91;5061297;28;20461;-73
2022/03/22 05:11:38;;;;;;;29.60;17.47;;;;;;;6.71;36.18;95880.28;5048680;28;20179;-74
2022/03/22 05:14:04;;;;;;;25.97;18.03;;;;;;;6.33;37.10;95887.16;5043389;28;20664;-74
2022/03/22 05:16:35;;;;;;;22.97;16.83;;;;;;;6.19;37.65;95887.59;5045149;28;20514;-73
2022/03/22 05:19:01;;;;;;;18.77;14.67;;;;;;;6.49;37.35;95888.38;5043172;28;20194;-74
2022/03/22 05:21:26;;;;;;;25.00;16.07;;;;;;;5.98;37.68;95880.72;5047019;28;20410;-74
2022/03/22 05:23:52;;;;;;;22.80;15.83;;;;;;;6.22;37.74;95884.69;5056433;28;20186;-73
2022/03/22 05:26:18;;;;;;;20.70;14.33;;;;;;;6.41;37.06;95889.94;5053800;28;20229;-74
2022/03/22 05:28:44;;;;;;;19.40;12.30;;;;;;;6.30;37.14;95884.88;5056013;28;20472;-73
2022/03/22 05:31:11;;;;;;;24.60;15.20;;;;;;;6.73;36.69;95885.38;5056028;28;20183;-73
2022/03/22 05:33:38;;;;;;;20.30;15.77;;;;;;;6.55;36.19;95880.88;5055433;28;20428;-73
2022/03/22 05:36:04;;;;;;;21.10;16.20;;;;;;;6.95;35.90;95876.44;5067099;28;20417;-73
2022/03/22 05:38:30;;;;;;;26.10;17.40;;;;;;;7.09;35.23;95882.97;5052365;28;20440;-73
2022/03/22 05:40:56;;;;;;;26.40;17.20;;;;;;;7.49;34.36;95880.06;5065303;28;20421;-73
2022/03/22 05:43:24;;;;;;;30.90;15.90;;;;;;;7.74;34.43;95870.75;5055501;28;20429;-73
2022/03/22 05:45:51;;;;;;;23.10;12.27;;;;;;;7.80;33.83;95874.56;5065436;28;20481;-73
2022/03/22 05:48:17;;;;;;;16.10;12.77;;;;;;;8.06;32.15;95874.66;5062623;28;20436;-73
2022/03/22 05:50:43;;;;;;;21.70;15.20;;;;;;;8.27;32.57;95865.72;5065438;28;20443;-74
2022/03/22 05:53:10;;;;;;;20.20;14.90;;;;;;;8.65;31.89;95869.00;5061051;28;20468;-73
2022/03/22 05:55:36;;;;;;;20.63;14.43;;;;;;;9.00;30.80;95860.28;5065962;28;20186;-73
2022/03/22 05:58:02;;;;;;;24.77;14.50;;;;;;;9.08;29.90;95865.53;5053362;28;20505;-74
2022/03/22 06:00:28;;;;;;;25.70;18.17;;;;;;;9.10;30.83;95863.59;5048249;28;20426;-73
2022/03/22 06:02:53;;;;;;;19.10;14.27;;;;;;;9.09;30.21;95867.19;5057877;28;20452;-73
2022/03/22 06:05:19;;;;;;;16.90;12.80;;;;;;;9.19;28.62;95857.44;5042682;28;20191;-73
2022/03/22 06:07:44;;;;;;;15.73;11.70;;;;;;;9.05;28.36;95860.63;5044742;28;20171;-73
2022/03/22 06:10:14;;;;;;;14.17;11.33;;;;;;;9.25;28.65;95863.03;5055248;28;20214;-73
2022/03/22 06:12:43;;;;;;;14.53;11.30;;;;;;;9.38;28.72;95866.03;5039570;28;20258;-73
2022/03/22 06:15:17;;;;;;;13.47;11.70;;;;;;;9.54;27.60;95858.25;5039848;28;20433;-73
2022/03/22 06:17:50;;;;;;;19.87;13.20;;;;;;;9.73;27.46;95857.19;5042775;28;20438;-73
2022/03/22 06:20:17;;;;;;;23.07;13.67;;;;;;;9.47;28.72;95870.31;5030897;28;20428;-73
2022/03/22 06:22:45;;;;;;;16.60;13.33;;;;;;;9.82;28.20;95862.44;5045794;28;20509;-73
2022/03/22 06:25:11;;;;;;;18.03;12.80;;;;;;;9.30;29.13;95869.41;5044158;28;20430;-73
2022/03/22 06:27:37;;;;;;;19.77;11.77;;;;;;;8.97;28.77;95863.19;5050795;28;20426;-72
2022/03/22 06:30:05;;;;;;;17.43;11.50;;;;;;;8.92;28.73;95860.22;5055278;28;20444;-74
2022/03/22 06:32:30;;;;;;;23.00;11.50;;;;;;;9.57;28.21;95863.16;5055399;28;20178;-73
2022/03/22 06:34:56;;;;;;;17.57;13.17;;;;;;;9.65;27.95;95854.53;5059219;28;20422;-73
2022/03/22 06:37:21;;;;;;;15.50;12.03;;;;;;;10.09;27.60;95866.56;5055058;28;20226;-73
2022/03/22 06:39:47;;;;;;;15.77;12.70;;;;;;;9.75;27.38;95857.00;5066143;28;20198;-74
2022/03/22 06:42:13;;;;;;;15.37;11.63;;;;;;;10.47;26.86;95859.13;5057875;28;20188;-73
2022/03/22 06:44:40;;;;;;;23.63;13.73;;;;;;;10.27;26.38;95856.00;5052240;28;20238;-73
2022/03/22 06:47:06;;;;;;;15.63;12.17;;;;;;;10.81;26.16;95856.31;5058772;28;20270;-74
2022/03/22 06:49:31;;;;;;;12.80;11.40;;;;;;;11.25;25.54;95844.63;5064528;28;20432;-73
2022/03/22 06:51:57;;;;;;;12.77;10.70;;;;;;;11.82;24.68;95848.81;5060162;28;20219;-74
2022/03/22 06:54:22;;;;;;;13.87;10.83;;;;;;;12.03;24.47;95854.31;5063470;28;20672;-74
2022/03/22 06:56:48;;;;;;;14.23;11.57;;;;;;;11.28;24.88;95850.34;5054222;28;20206;-76
2022/03/22 06:59:14;;;;;;;19.90;11.13;;;;;;;10.81;25.58;95858.94;5047501;28;20179;-74
2022/03/22 07:01:40;;;;;;;12.63;10.50;;;;;;;11.05;24.93;95858.09;5048031;28;20218;-73
2022/03/22 07:04:05;;;;;;;10.30;7.93;;;;;;;10.92;25.26;95852.56;5064082;28;20478;-73
2022/03/22 07:06:31;;;;;;;13.70;9.60;;;;;;;10.93;25.31;95854.22;5056801;28;20421;-74
2022/03/22 07:08:56;;;;;;;15.60;10.87;;;;;;;11.49;24.18;95841.91;5052019;28;20212;-74
2022/03/22 07:14:06;;;;;;;13.47;8.90;;;;;;;11.52;24.46;95856.50;5047974;28;20249;-74
2022/03/22 07:16:31;;;;;;;15.57;9.67;;;;;;;11.39;24.88;95851.78;5050996;28;20536;-74
2022/03/22 07:18:57;;;;;;;10.93;9.83;;;;;;;11.98;24.02;95853.19;5060765;28;20175;-74
2022/03/22 07:21:22;;;;;;;10.20;9.13;;;;;;;12.17;23.10;95855.38;5054949;28;20194;-74
2022/03/22 07:23:48;;;;;;;12.63;9.07;;;;;;;11.85;23.59;95845.84;5055652;28;20194;-73
2022/03/22 07:26:16;;;;;;;14.57;9.47;;;;;;;12.05;23.73;95846.28;5059968;28;20211;-73
2022/03/22 07:28:42;;;;;;;15.93;10.33;;;;;;;12.28;23.41;95841.84;5060254;28;20194;-73
2022/03/22 07:31:07;;;;;;;13.90;10.40;;;;;;;12.21;23.74;95840.91;5053743;28;20414;-74
2022/03/22 07:33:33;;;;;;;14.60;10.87;;;;;;;12.57;23.84;95835.06;5058499;28;20437;-74
2022/03/22 07:35:58;;;;;;;12.10;10.90;;;;;;;11.77;24.24;95830.97;5059640;28;20191;-74
2022/03/22 07:38:24;;;;;;;13.23;10.90;;;;;;;12.15;24.08;95841.63;5049011;28;20205;-74
2022/03/22 07:40:49;;;;;;;13.00;9.70;;;;;;;12.15;24.38;95836.38;5060136;28;20191;-73
2022/03/22 07:43:14;;;;;;;12.60;10.27;;;;;;;12.25;24.20;95836.94;5052632;28;20570;-73
2022/03/22 07:45:40;;;;;;;15.47;9.90;;;;;;;11.97;24.90;95833.19;5052098;28;20186;-74
2022/03/22 07:48:05;;;;;;;12.20;10.70;;;;;;;11.97;24.74;95833.19;5060941;28;20190;-73
2022/03/22 07:53:15;;;;;;;17.63;12.50;;;;;;;11.93;25.16;95826.66;5051768;28;20197;-73
2022/03/22 07:55:43;;;;;;;16.13;10.17;;;;;;;12.21;25.19;95825.16;5055501;28;20426;-74
2022/03/22 07:58:09;;;;;;;19.03;10.73;;;;;;;12.70;24.69;95818.72;5055743;28;20194;-74
2022/03/22 08:00:38;;;;;;;14.70;11.00;;;;;;;13.42;24.33;95818.16;5062943;28;20520;-73
2022/03/22 08:03:04;;;;;;;12.10;10.43;;;;;;;13.16;23.94;95820.38;5053837;28;20527;-74
2022/03/22 08:05:33;;;;;;;11.57;10.13;;;;;;;13.34;25.42;95823.50;5058401;28;20977;-72
2022/03/22 08:07:59;;;;;;;13.20;10.17;;;;;;;12.73;26.91;95822.78;5051093;28;20425;-74
2022/03/22 08:10:26;;;;;;;16.20;11.70;;;;;;;13.34;25.89;95820.06;5054619;28;20445;-73
2022/03/22 08:12:52;;;;;;;14.07;10.77;;;;;;;13.08;27.21;95821.28;5046360;28;20845;-73
2022/03/22 08:15:18;;;;;;;12.80;10.30;;;;;;;13.11;27.40;95823.56;5051805;28;20456;-74
2022/03/22 08:17:44;;;;;;;13.40;10.33;;;;;;;12.80;27.08;95821.06;5056635;28;21061;-74
2022/03/22 08:20:11;;;;;;;12.80;10.40;;;;;;;13.81;26.31;95817.00;5061059;28;20238;-74
2022/03/22 08:22:58;;;;;;;13.33;10.03;;;;;;;12.95;27.93;95821.91;5055488;28;20425;-74
2022/03/22 08:25:31;;;;;;;16.97;10.70;;;;;;;12.80;27.24;95819.25;5057471;28;20510;-74
2022/03/22 08:27:59;;;;;;;13.73;10.73;;;;;;;13.11;27.48;95820.94;5061178;28;20421;-74
2022/03/22 08:30:26;;;;;;;14.30;11.03;;;;;;;13.54;26.75;95823.75;5064562;28;20487;-73
2022/03/22 08:32:55;;;;;;;13.87;11.47;;;;;;;13.62;26.66;95817.56;5053080;28;20917;-73
2022/03/22 08:35:23;;;;;;;14.57;11.20;;;;;;;13.68;27.34;95814.22;5055374;28;20471;-74
2022/03/22 08:37:49;;;;;;;22.53;12.60;;;;;;;13.90;26.49;95814.25;5061277;28;20927;-73
2022/03/22 08:40:15;;;;;;;15.00;11.53;;;;;;;13.90;26.13;95824.78;5058538;28;20431;-74
2022/03/22 08:42:45;;;;;;;18.00;12.63;;;;;;;13.44;27.25;95833.75;5059222;28;20174;-74
2022/03/22 08:45:15;;;;;;;13.00;11.60;;;;;;;13.60;26.73;95823.03;5060657;28;20437;-74
2022/03/22 08:47:42;;;;;;;21.50;11.67;;;;;;;13.40;27.09;95820.16;5056385;28;20409;-73
2022/03/22 08:50:12;;;;;;;14.83;10.83;;;;;;;13.14;28.40;95819.75;5059817;28;20489;-73
2022/03/22 08:52:39;;;;;;;12.30;8.50;;;;;;;12.86;28.74;95812.47;5059377;28;20460;-73
2022/03/22 08:55:07;;;;;;;14.30;11.33;;;;;;;12.77;28.39;95813.56;5060526;28;20448;-74
2022/03/22 08:57:36;;;;;;;16.23;12.23;;;;;;;12.50;28.64;95810.50;5061471;28;20460;-74
2022/03/22 09:00:08;;;;;;;13.17;10.33;;;;;;;12.83;29.00;95815.47;5066774;28;20417;-73
2022/03/22 09:02:41;;;;;;;13.03;10.70;;;;;;;12.53;29.72;95807.53;5065352;28;20420;-74
2022/03/22 09:07:53;;;;;;;9.60;8.20;;;;;;;12.28;29.90;95805.09;5065855;28;20419;-73
2022/03/22 09:10:20;;;;;;;11.90;9.73;;;;;;;12.17;30.05;95797.63;5064029;28;20441;-74
2022/03/22 09:12:48;;;;;;;11.30;7.03;;;;;;;11.36;31.55;95797.06;5062497;28;20443;-74
2022/03/22 09:15:14;;;;;;;11.93;9.43;;;;;;;11.23;31.51;95799.44;5063963;28;20499;-74
2022/03/22 09:17:40;;;;;;;14.80;9.67;;;;;;;11.49;31.66;95805.22;5057302;28;20466;-74
2022/03/22 09:20:07;;;;;;;15.87;11.37;;;;;;;11.98;30.65;95796.28;5064399;28;20425;-74
2022/03/22 09:22:32;;;;;;;13.70;10.50;;;;;;;11.91;31.01;95792.72;5060511;28;20174;-75
2022/03/22 09:24:58;;;;;;;12.87;7.70;;;;;;;11.62;31.42;95796.81;5064422;28;20427;-74
2022/03/22 09:27:24;;;;;;;14.50;12.10;;;;;;;11.19;32.63;95796.31;5052208;28;20198;-74
2022/03/22 09:29:49;;;;;;;16.90;11.80;;;;;;;11.54;32.22;95791.59;5066292;28;20261;-75
2022/03/22 09:32:15;;;;;;;15.23;9.90;;;;;;;11.48;32.49;95794.91;5064829;28;20444;-74
2022/03/22 09:34:40;;;;;;;15.17;11.90;;;;;;;11.74;31.66;95786.72;5062906;28;20700;-74
2022/03/22 09:37:07;;;;;;;19.03;11.70;;;;;;;11.14;33.44;95775.06;5059133;28;20219;-74
2022/03/22 09:39:34;;;;;;;12.97;9.87;;;;;;;11.24;33.32;95780.09;5065001;28;20171;-74
2022/03/22 09:42:03;;;;;;;14.50;10.40;;;;;;;11.90;32.40;95768.31;5064262;28;20492;-74
2022/03/22 09:44:29;;;;;;;18.33;11.83;;;;;;;11.57;33.08;95765.03;5065034;28;20551;-74
2022/03/22 09:46:56;;;;;;;15.30;11.63;;;;;;;12.30;32.03;95766.38;5063010;28;20426;-74
2022/03/22 09:49:22;;;;;;;16.77;10.37;;;;;;;11.77;33.50;95762.78;5060760;28;20418;-74
2022/03/22 09:51:48;;;;;;;14.60;11.53;;;;;;;12.08;33.14;95767.19;5048320;28;20557;-74
2022/03/22 09:54:22;;;;;;;17.57;10.90;;;;;;;12.33;32.92;95764.38;5061224;28;20183;-74
2022/03/22 09:56:49;;;;;;;12.07;10.33;;;;;;;12.32;33.81;95762.75;5053458;28;20465;-74
2022/03/22 09:59:15;;;;;;;8.80;7.50;;;;;;;12.02;34.36;95767.91;5052250;28;20438;-74
2022/03/22 10:01:42;;;;;;;8.23;5.70;;;;;;;11.43;34.97;95766.59;5052223;28;20425;-74
2022/03/22 10:04:12;;;;;;;5.47;5.07;;;;;;;11.10;36.40;95753.63;5059853;28;20803;-74
2022/03/22 10:06:39;;;;;;;10.93;8.17;;;;;;;11.68;35.44;95762.00;5057761;28;20458;-74
2022/03/22 10:09:05;;;;;;;11.50;8.60;;;;;;;11.50;35.68;95754.44;5056329;28;20473;-74
2022/03/22 10:11:39;;;;;;;12.77;8.43;;;;;;;12.35;34.79;95736.97;5043433;28;20780;-75
2022/03/22 10:14:05;;;;;;;11.67;9.23;;;;;;;13.16;33.16;95736.28;5054736;28;20428;-74
2022/03/22 10:16:31;;;;;;;17.03;10.03;;;;;;;13.43;32.66;95733.00;5058353;28;20980;-75
2022/03/22 10:18:57;;;;;;;11.50;9.23;;;;;;;12.80;33.80;95731.75;5063703;28;20510;-74
2022/03/22 10:21:22;;;;;;;15.27;10.60;;;;;;;13.14;33.31;95733.03;5067022;28;20186;-75
2022/03/22 10:23:53;;;;;;;13.57;8.50;;;;;;;12.99;33.04;95725.16;5061651;28;20290;-74
2022/03/22 10:26:19;;;;;;;12.53;9.37;;;;;;;12.32;35.01;95728.63;5056995;28;20180;-75
2022/03/22 10:28:50;;;;;;;10.87;8.53;;;;;;;12.38;34.82;95728.72;5046909;28;20465;-75
2022/03/22 10:31:16;;;;;;;9.57;8.70;;;;;;;12.81;34.55;95725.53;5066341;28;20654;-75
2022/03/22 10:33:52;;;;;;;5.00;4.07;;;;;;;12.72;34.27;95710.84;5059961;28;20436;-75
2022/03/22 10:36:21;;;;;;;12.37;8.73;;;;;;;12.85;33.56;95711.84;5037611;28;20429;-75
2022/03/22 10:38:57;;;;;;;9.60;8.37;;;;;;;13.68;32.76;95719.53;5065962;28;20425;-75
2022/03/22 10:41:28;;;;;;;10.50;7.73;;;;;;;13.72;32.91;95702.34;5065867;28;20459;-75
2022/03/22 10:44:15;;;;;;;11.63;7.50;;;;;;;13.26;33.01;95697.38;5053343;28;20847;-75
2022/03/22 10:46:45;;;;;;;5.00;3.80;;;;;;;13.88;32.12;95697.84;5064952;28;20434;-74
2022/03/22 10:49:15;;;;;;;9.63;7.93;;;;;;;13.88;32.80;95687.31;5060801;28;20420;-75
2022/03/22 10:51:48;;;;;;;9.13;7.40;;;;;;;13.79;32.51;95690.09;5044910;28;20473;-75
2022/03/22 10:54:17;;;;;;;8.07;7.37;;;;;;;14.82;31.50;95672.00;5053764;28;20546;-75
2022/03/22 10:56:47;;;;;;;12.30;9.00;;;;;;;15.07;31.12;95676.78;5054925;28;20461;-75
2022/03/22 10:59:16;;;;;;;10.70;7.90;;;;;;;14.24;31.99;95666.16;5063438;28;20459;-75
2022/03/22 11:01:44;;;;;;;10.23;9.23;;;;;;;15.13;30.94;95665.44;5049336;28;20429;-75
2022/03/22 11:04:10;;;;;;;11.77;8.90;;;;;;;15.71;30.31;95659.72;5041199;28;20897;-75
2022/03/22 11:06:38;;;;;;;9.67;8.13;;;;;;;15.91;29.52;95659.75;5058901;28;20429;-75
2022/03/22 11:09:04;;;;;;;10.07;7.80;;;;;;;16.00;28.96;95647.19;5052865;28;20429;-75
2022/03/22 11:11:32;;;;;;;10.10;8.13;;;;;;;15.19;29.85;95643.56;5064883;28;20523;-76
2022/03/22 11:14:00;;;;;;;13.00;8.83;;;;;;;15.52;29.68;95634.13;5045255;28;20501;-75
2022/03/22 11:16:27;;;;;;;9.00;7.53;;;;;;;15.37;29.88;95635.09;5047302;28;20464;-74
2022/03/22 11:18:55;;;;;;;6.67;5.33;;;;;;;15.16;28.79;95629.97;5052997;28;20432;-75
2022/03/22 11:21:21;;;;;;;14.90;9.10;;;;;;;15.40;29.71;95621.53;5065326;28;20425;-75
2022/03/22 11:23:47;;;;;;;9.87;8.03;;;;;;;15.91;28.45;95627.28;5053974;28;20424;-75
2022/03/22 11:26:17;;;;;;;15.13;9.20;;;;;;;16.36;27.64;95619.53;5052015;28;20929;-75
2022/03/22 11:28:45;;;;;;;9.33;7.17;;;;;;;16.68;27.60;95623.09;5051812;28;20793;-74
2022/03/22 11:31:13;;;;;;;8.87;7.50;;;;;;;17.28;25.75;95608.84;5065073;28;20433;-75
2022/03/22 11:36:28;;;;;;;10.43;7.10;;;;;;;16.45;26.56;95602.44;5065204;28;20470;-75
2022/03/22 11:38:58;;;;;;;9.40;6.60;;;;;;;16.37;26.46;95592.06;5060373;28;20480;-75
2022/03/22 11:44:36;;;;;;;11.60;9.70;;;;;;;17.32;25.58;95587.06;5058796;28;20408;-75
2022/03/22 11:47:14;;;;;;;13.27;7.17;;;;;;;15.79;26.88;95588.28;5058349;28;20438;-75
2022/03/22 11:50:16;;;;;;;13.50;8.07;;;;;;;15.35;27.46;95581.75;5062416;28;20425;-75
2022/03/22 11:52:42;;;;;;;7.50;6.50;;;;;;;15.98;27.23;95575.28;5059062;28;20455;-75
2022/03/22 11:55:18;;;;;;;11.90;8.07;;;;;;;16.46;26.83;95574.19;5059716;28;20422;-75
2022/03/22 11:57:46;;;;;;;11.30;8.23;;;;;;;15.95;27.40;95576.53;5054394;28;20536;-75